sensor_id;sensor_type;location;lat;lon;timestamp;temperature;humidity
21259;DHT22;10787;53.364;-1.480;2022-08-19T00:01:31;18.10;99.90
21259;DHT22;10787;53.364;-1.480;2022-08-19T00:04:00;18.00;99.90
21259;DHT22;10787;53.364;-1.480;2022-08-19T00:06:28;18.00;99.90
21259;DHT22;10787;53.364;-1.480;2022-08-19T00:08:55;18.00;99.90
21259;DHT22;10787;53.364;-1.480;2022-08-19T00:11:21;18.00;99.90
21259;DHT22;10787;53.364;-1.480;2022-08-19T00:13:48;17.90;99.90
21259;DHT22;10787;53.364;-1.480;2022-08-19T00:16:18;17.90;99.90
21259;DHT22;10787;53.364;-1.480;2022-08-19T00:18:47;17.90;99.90
21259;DHT22;10787;53.364;-1.480;2022-08-19T00:21:13;17.90;99.90
21259;DHT22;10787;53.364;-1.480;2022-08-19T00:23:41;17.90;99.90
21259;DHT22;10787;53.364;-1.480;2022-08-19T00:26:09;17.90;99.90
21259;DHT22;10787;53.364;-1.480;2022-08-19T00:28:35;17.90;99.90
21259;DHT22;10787;53.364;-1.480;2022-08-19T00:31:03;17.90;99.90
21259;DHT22;10787;53.364;-1.480;2022-08-19T00:33:31;17.90;99.90
21259;DHT22;10787;53.364;-1.480;2022-08-19T00:36:05;17.90;99.90
21259;DHT22;10787;53.364;-1.480;2022-08-19T00:38:32;17.80;99.90
21259;DHT22;10787;53.364;-1.480;2022-08-19T00:40:59;17.60;99.90
21259;DHT22;10787;53.364;-1.480;2022-08-19T00:43:27;17.60;99.90
21259;DHT22;10787;53.364;-1.480;2022-08-19T00:45:54;17.50;99.90
21259;DHT22;10787;53.364;-1.480;2022-08-19T00:48:20;17.40;99.90
21259;DHT22;10787;53.364;-1.480;2022-08-19T00:50:48;17.30;99.90
21259;DHT22;10787;53.364;-1.480;2022-08-19T00:53:18;17.20;99.90
21259;DHT22;10787;53.364;-1.480;2022-08-19T00:55:46;17.10;99.90
21259;DHT22;10787;53.364;-1.480;2022-08-19T00:58:19;17.10;99.90
21259;DHT22;10787;53.364;-1.480;2022-08-19T01:00:46;17.10;99.90
21259;DHT22;10787;53.364;-1.480;2022-08-19T01:03:31;17.00;99.90
21259;DHT22;10787;53.364;-1.480;2022-08-19T01:05:56;17.00;99.90
21259;DHT22;10787;53.364;-1.480;2022-08-19T01:08:23;17.00;99.90
21259;DHT22;10787;53.364;-1.480;2022-08-19T01:10:59;17.00;99.90
21259;DHT22;10787;53.364;-1.480;2022-08-19T01:13:29;17.00;99.90
21259;DHT22;10787;53.364;-1.480;2022-08-19T01:16:14;17.00;99.90
21259;DHT22;10787;53.364;-1.480;2022-08-19T01:18:42;17.00;99.90
21259;DHT22;10787;53.364;-1.480;2022-08-19T01:23:55;16.90;99.90
21259;DHT22;10787;53.364;-1.480;2022-08-19T01:26:23;16.90;99.90
21259;DHT22;10787;53.364;-1.480;2022-08-19T01:28:52;16.90;99.90
21259;DHT22;10787;53.364;-1.480;2022-08-19T01:31:25;16.90;99.90
21259;DHT22;10787;53.364;-1.480;2022-08-19T01:33:52;16.80;99.90
21259;DHT22;10787;53.364;-1.480;2022-08-19T01:36:35;16.80;99.90
21259;DHT22;10787;53.364;-1.480;2022-08-19T01:39:07;16.80;99.90
21259;DHT22;10787;53.364;-1.480;2022-08-19T01:41:34;16.80;99.90
21259;DHT22;10787;53.364;-1.480;2022-08-19T01:44:00;16.70;99.90
21259;DHT22;10787;53.364;-1.480;2022-08-19T01:46:30;16.60;99.90
21259;DHT22;10787;53.364;-1.480;2022-08-19T01:48:56;16.50;99.90
21259;DHT22;10787;53.364;-1.480;2022-08-19T01:51:22;16.50;99.90
21259;DHT22;10787;53.364;-1.480;2022-08-19T01:53:49;16.40;99.90
21259;DHT22;10787;53.364;-1.480;2022-08-19T01:56:16;16.30;99.90
21259;DHT22;10787;53.364;-1.480;2022-08-19T01:58:47;16.20;99.90
21259;DHT22;10787;53.364;-1.480;2022-08-19T02:01:16;16.10;99.90
21259;DHT22;10787;53.364;-1.480;2022-08-19T02:03:43;16.00;99.90
21259;DHT22;10787;53.364;-1.480;2022-08-19T02:06:08;15.90;99.90
21259;DHT22;10787;53.364;-1.480;2022-08-19T02:08:36;15.90;99.90
21259;DHT22;10787;53.364;-1.480;2022-08-19T02:11:03;15.80;99.90
21259;DHT22;10787;53.364;-1.480;2022-08-19T02:13:31;15.80;99.90
21259;DHT22;10787;53.364;-1.480;2022-08-19T02:15:57;15.70;99.90
21259;DHT22;10787;53.364;-1.480;2022-08-19T02:18:23;15.80;99.90
21259;DHT22;10787;53.364;-1.480;2022-08-19T02:20:49;15.70;99.90
21259;DHT22;10787;53.364;-1.480;2022-08-19T02:23:16;15.80;99.90
21259;DHT22;10787;53.364;-1.480;2022-08-19T02:25:44;15.70;99.90
21259;DHT22;10787;53.364;-1.480;2022-08-19T02:28:11;15.70;99.90
21259;DHT22;10787;53.364;-1.480;2022-08-19T02:30:38;15.70;99.90
21259;DHT22;10787;53.364;-1.480;2022-08-19T02:33:05;15.60;99.90
21259;DHT22;10787;53.364;-1.480;2022-08-19T02:35:31;15.60;99.90
21259;DHT22;10787;53.364;-1.480;2022-08-19T02:37:58;15.50;99.90
21259;DHT22;10787;53.364;-1.480;2022-08-19T02:40:52;15.50;99.90
21259;DHT22;10787;53.364;-1.480;2022-08-19T02:43:19;15.40;99.90
21259;DHT22;10787;53.364;-1.480;2022-08-19T02:45:48;15.40;99.90
21259;DHT22;10787;53.364;-1.480;2022-08-19T02:48:19;15.40;99.90
21259;DHT22;10787;53.364;-1.480;2022-08-19T02:50:46;15.40;99.90
21259;DHT22;10787;53.364;-1.480;2022-08-19T02:53:13;15.30;99.90
21259;DHT22;10787;53.364;-1.480;2022-08-19T02:55:44;15.30;99.90
21259;DHT22;10787;53.364;-1.480;2022-08-19T02:58:10;15.30;99.90
21259;DHT22;10787;53.364;-1.480;2022-08-19T03:00:40;15.30;99.90
21259;DHT22;10787;53.364;-1.480;2022-08-19T03:03:08;15.30;99.90
21259;DHT22;10787;53.364;-1.480;2022-08-19T03:05:34;15.30;99.90
21259;DHT22;10787;53.364;-1.480;2022-08-19T03:08:00;15.40;99.90
21259;DHT22;10787;53.364;-1.480;2022-08-19T03:10:26;15.40;99.90
21259;DHT22;10787;53.364;-1.480;2022-08-19T03:12:51;15.50;99.90
21259;DHT22;10787;53.364;-1.480;2022-08-19T03:15:18;15.50;99.90
21259;DHT22;10787;53.364;-1.480;2022-08-19T03:17:43;15.50;99.90
21259;DHT22;10787;53.364;-1.480;2022-08-19T03:20:10;15.60;99.90
21259;DHT22;10787;53.364;-1.480;2022-08-19T03:22:36;15.60;99.90
21259;DHT22;10787;53.364;-1.480;2022-08-19T03:25:02;15.70;99.90
21259;DHT22;10787;53.364;-1.480;2022-08-19T03:27:28;15.70;99.90
21259;DHT22;10787;53.364;-1.480;2022-08-19T03:29:55;15.70;99.90
21259;DHT22;10787;53.364;-1.480;2022-08-19T03:32:21;15.60;99.90
21259;DHT22;10787;53.364;-1.480;2022-08-19T03:34:48;15.60;99.90
21259;DHT22;10787;53.364;-1.480;2022-08-19T03:37:15;15.50;99.90
21259;DHT22;10787;53.364;-1.480;2022-08-19T03:39:41;15.50;99.90
21259;DHT22;10787;53.364;-1.480;2022-08-19T03:42:10;15.40;99.90
21259;DHT22;10787;53.364;-1.480;2022-08-19T03:44:36;15.40;99.90
21259;DHT22;10787;53.364;-1.480;2022-08-19T03:47:05;15.30;99.90
21259;DHT22;10787;53.364;-1.480;2022-08-19T03:49:32;15.20;99.90
21259;DHT22;10787;53.364;-1.480;2022-08-19T03:51:59;15.10;99.90
21259;DHT22;10787;53.364;-1.480;2022-08-19T03:54:30;15.10;99.90
21259;DHT22;10787;53.364;-1.480;2022-08-19T03:56:56;15.00;99.90
21259;DHT22;10787;53.364;-1.480;2022-08-19T03:59:25;14.90;99.90
21259;DHT22;10787;53.364;-1.480;2022-08-19T04:01:56;14.90;99.90
21259;DHT22;10787;53.364;-1.480;2022-08-19T04:04:23;14.80;99.90
21259;DHT22;10787;53.364;-1.480;2022-08-19T04:06:49;14.80;99.90
21259;DHT22;10787;53.364;-1.480;2022-08-19T04:09:18;14.70;99.90
21259;DHT22;10787;53.364;-1.480;2022-08-19T04:11:51;14.70;99.90
21259;DHT22;10787;53.364;-1.480;2022-08-19T04:14:22;14.60;99.90
21259;DHT22;10787;53.364;-1.480;2022-08-19T04:16:50;14.60;99.90
21259;DHT22;10787;53.364;-1.480;2022-08-19T04:19:17;14.50;99.90
21259;DHT22;10787;53.364;-1.480;2022-08-19T04:21:46;14.50;99.90
21259;DHT22;10787;53.364;-1.480;2022-08-19T04:24:13;14.50;99.90
21259;DHT22;10787;53.364;-1.480;2022-08-19T04:26:40;14.40;99.90
21259;DHT22;10787;53.364;-1.480;2022-08-19T04:29:12;14.40;99.90
21259;DHT22;10787;53.364;-1.480;2022-08-19T04:31:40;14.30;99.90
21259;DHT22;10787;53.364;-1.480;2022-08-19T04:34:09;14.30;99.90
21259;DHT22;10787;53.364;-1.480;2022-08-19T04:36:37;14.30;99.90
21259;DHT22;10787;53.364;-1.480;2022-08-19T04:39:19;14.30;99.90
21259;DHT22;10787;53.364;-1.480;2022-08-19T04:41:46;14.20;99.90
21259;DHT22;10787;53.364;-1.480;2022-08-19T04:44:35;14.20;99.90
21259;DHT22;10787;53.364;-1.480;2022-08-19T04:47:02;14.10;99.90
21259;DHT22;10787;53.364;-1.480;2022-08-19T04:49:31;14.10;99.90
21259;DHT22;10787;53.364;-1.480;2022-08-19T04:51:57;14.10;99.90
21259;DHT22;10787;53.364;-1.480;2022-08-19T04:54:24;14.10;99.90
21259;DHT22;10787;53.364;-1.480;2022-08-19T04:56:53;14.10;99.90
21259;DHT22;10787;53.364;-1.480;2022-08-19T04:59:20;14.00;99.90
21259;DHT22;10787;53.364;-1.480;2022-08-19T05:01:46;14.00;99.90
21259;DHT22;10787;53.364;-1.480;2022-08-19T05:04:15;14.00;99.90
21259;DHT22;10787;53.364;-1.480;2022-08-19T05:06:42;14.00;99.90
21259;DHT22;10787;53.364;-1.480;2022-08-19T05:09:08;13.90;99.90
21259;DHT22;10787;53.364;-1.480;2022-08-19T05:11:36;13.90;99.90
21259;DHT22;10787;53.364;-1.480;2022-08-19T05:14:06;13.90;99.90
21259;DHT22;10787;53.364;-1.480;2022-08-19T05:16:32;13.80;99.90
21259;DHT22;10787;53.364;-1.480;2022-08-19T05:18:58;13.80;99.90
21259;DHT22;10787;53.364;-1.480;2022-08-19T05:21:43;13.80;99.90
21259;DHT22;10787;53.364;-1.480;2022-08-19T05:24:28;13.90;99.90
21259;DHT22;10787;53.364;-1.480;2022-08-19T05:26:55;14.00;99.90
21259;DHT22;10787;53.364;-1.480;2022-08-19T05:29:26;14.10;99.90
21259;DHT22;10787;53.364;-1.480;2022-08-19T05:31:54;14.30;99.90
21259;DHT22;10787;53.364;-1.480;2022-08-19T05:34:21;14.40;99.90
21259;DHT22;10787;53.364;-1.480;2022-08-19T05:36:51;14.50;99.90
21259;DHT22;10787;53.364;-1.480;2022-08-19T05:39:21;14.50;99.90
21259;DHT22;10787;53.364;-1.480;2022-08-19T05:41:53;14.50;99.90
21259;DHT22;10787;53.364;-1.480;2022-08-19T05:44:20;14.50;99.90
21259;DHT22;10787;53.364;-1.480;2022-08-19T05:46:48;14.50;99.90
21259;DHT22;10787;53.364;-1.480;2022-08-19T05:49:15;14.50;99.90
21259;DHT22;10787;53.364;-1.480;2022-08-19T05:51:42;14.60;99.90
21259;DHT22;10787;53.364;-1.480;2022-08-19T05:54:08;14.70;99.90
21259;DHT22;10787;53.364;-1.480;2022-08-19T05:56:36;14.70;99.90
21259;DHT22;10787;53.364;-1.480;2022-08-19T05:59:04;14.60;99.90
21259;DHT22;10787;53.364;-1.480;2022-08-19T06:01:38;14.50;99.90
21259;DHT22;10787;53.364;-1.480;2022-08-19T06:04:05;14.60;99.90
21259;DHT22;10787;53.364;-1.480;2022-08-19T06:06:32;14.60;99.90
21259;DHT22;10787;53.364;-1.480;2022-08-19T06:09:04;14.50;99.90
21259;DHT22;10787;53.364;-1.480;2022-08-19T06:11:46;14.50;99.90
21259;DHT22;10787;53.364;-1.480;2022-08-19T06:14:17;14.50;99.90
21259;DHT22;10787;53.364;-1.480;2022-08-19T06:16:44;14.50;99.90
21259;DHT22;10787;53.364;-1.480;2022-08-19T06:19:15;14.60;99.90
21259;DHT22;10787;53.364;-1.480;2022-08-19T06:21:43;14.60;99.90
21259;DHT22;10787;53.364;-1.480;2022-08-19T06:24:11;14.70;99.90
21259;DHT22;10787;53.364;-1.480;2022-08-19T06:26:39;14.80;99.90
21259;DHT22;10787;53.364;-1.480;2022-08-19T06:29:07;14.80;99.90
21259;DHT22;10787;53.364;-1.480;2022-08-19T06:31:34;14.90;99.90
21259;DHT22;10787;53.364;-1.480;2022-08-19T06:34:04;14.90;99.90
21259;DHT22;10787;53.364;-1.480;2022-08-19T06:36:34;14.90;99.90
21259;DHT22;10787;53.364;-1.480;2022-08-19T06:39:02;15.00;99.90
21259;DHT22;10787;53.364;-1.480;2022-08-19T06:41:29;15.10;99.90
21259;DHT22;10787;53.364;-1.480;2022-08-19T06:43:57;15.10;99.90
21259;DHT22;10787;53.364;-1.480;2022-08-19T06:46:23;15.10;99.90
21259;DHT22;10787;53.364;-1.480;2022-08-19T06:48:49;15.20;99.90
21259;DHT22;10787;53.364;-1.480;2022-08-19T06:51:19;15.20;99.90
21259;DHT22;10787;53.364;-1.480;2022-08-19T06:53:50;15.30;99.90
21259;DHT22;10787;53.364;-1.480;2022-08-19T06:56:19;15.30;99.90
21259;DHT22;10787;53.364;-1.480;2022-08-19T06:58:47;15.40;99.90
21259;DHT22;10787;53.364;-1.480;2022-08-19T07:01:17;15.40;99.90
21259;DHT22;10787;53.364;-1.480;2022-08-19T07:03:43;15.50;99.90
21259;DHT22;10787;53.364;-1.480;2022-08-19T07:06:12;15.50;99.90
21259;DHT22;10787;53.364;-1.480;2022-08-19T07:08:40;15.50;99.90
21259;DHT22;10787;53.364;-1.480;2022-08-19T07:11:11;15.50;99.90
21259;DHT22;10787;53.364;-1.480;2022-08-19T07:13:39;15.60;99.90
21259;DHT22;10787;53.364;-1.480;2022-08-19T07:16:10;15.70;99.90
21259;DHT22;10787;53.364;-1.480;2022-08-19T07:18:36;15.70;99.90
21259;DHT22;10787;53.364;-1.480;2022-08-19T07:21:11;15.80;99.90
21259;DHT22;10787;53.364;-1.480;2022-08-19T07:23:38;15.80;99.90
21259;DHT22;10787;53.364;-1.480;2022-08-19T07:26:09;15.90;99.90
21259;DHT22;10787;53.364;-1.480;2022-08-19T07:28:35;16.00;99.90
21259;DHT22;10787;53.364;-1.480;2022-08-19T07:31:07;16.00;99.90
21259;DHT22;10787;53.364;-1.480;2022-08-19T07:33:34;16.10;99.90
21259;DHT22;10787;53.364;-1.480;2022-08-19T07:36:04;16.20;99.90
21259;DHT22;10787;53.364;-1.480;2022-08-19T07:38:31;16.20;99.90
21259;DHT22;10787;53.364;-1.480;2022-08-19T07:40:58;16.30;99.90
21259;DHT22;10787;53.364;-1.480;2022-08-19T07:43:24;16.30;99.90
21259;DHT22;10787;53.364;-1.480;2022-08-19T07:45:52;16.40;99.90
21259;DHT22;10787;53.364;-1.480;2022-08-19T07:48:18;16.50;99.90
21259;DHT22;10787;53.364;-1.480;2022-08-19T07:50:45;16.60;99.90
21259;DHT22;10787;53.364;-1.480;2022-08-19T07:53:11;16.70;99.90
21259;DHT22;10787;53.364;-1.480;2022-08-19T07:55:37;16.80;99.90
21259;DHT22;10787;53.364;-1.480;2022-08-19T07:58:03;16.90;99.90
21259;DHT22;10787;53.364;-1.480;2022-08-19T08:00:30;16.80;99.90
21259;DHT22;10787;53.364;-1.480;2022-08-19T08:02:56;16.80;99.90
21259;DHT22;10787;53.364;-1.480;2022-08-19T08:05:25;16.90;99.90
21259;DHT22;10787;53.364;-1.480;2022-08-19T08:08:09;17.00;99.90
21259;DHT22;10787;53.364;-1.480;2022-08-19T08:11:08;17.10;99.90
21259;DHT22;10787;53.364;-1.480;2022-08-19T08:13:34;17.20;99.90
21259;DHT22;10787;53.364;-1.480;2022-08-19T08:16:01;17.30;99.90
21259;DHT22;10787;53.364;-1.480;2022-08-19T08:18:28;17.40;99.90
21259;DHT22;10787;53.364;-1.480;2022-08-19T08:20:55;17.50;99.90
21259;DHT22;10787;53.364;-1.480;2022-08-19T08:23:20;17.60;99.90
21259;DHT22;10787;53.364;-1.480;2022-08-19T08:25:55;17.60;99.90
21259;DHT22;10787;53.364;-1.480;2022-08-19T08:28:22;17.60;99.90
21259;DHT22;10787;53.364;-1.480;2022-08-19T08:30:50;17.70;99.90
21259;DHT22;10787;53.364;-1.480;2022-08-19T08:33:25;17.50;99.90
21259;DHT22;10787;53.364;-1.480;2022-08-19T08:35:52;17.30;99.90
21259;DHT22;10787;53.364;-1.480;2022-08-19T08:38:18;17.30;99.90
21259;DHT22;10787;53.364;-1.480;2022-08-19T08:40:50;17.20;99.90
21259;DHT22;10787;53.364;-1.480;2022-08-19T08:43:29;17.20;99.90
21259;DHT22;10787;53.364;-1.480;2022-08-19T08:48:54;17.30;99.90
21259;DHT22;10787;53.364;-1.480;2022-08-19T08:51:32;17.50;99.90
21259;DHT22;10787;53.364;-1.480;2022-08-19T08:53:59;17.70;99.90
21259;DHT22;10787;53.364;-1.480;2022-08-19T08:56:26;17.80;99.90
21259;DHT22;10787;53.364;-1.480;2022-08-19T08:59:20;18.00;99.90
21259;DHT22;10787;53.364;-1.480;2022-08-19T09:01:44;18.00;99.90
21259;DHT22;10787;53.364;-1.480;2022-08-19T09:04:11;18.10;99.90
21259;DHT22;10787;53.364;-1.480;2022-08-19T09:06:51;18.30;99.90
21259;DHT22;10787;53.364;-1.480;2022-08-19T09:09:31;18.40;99.90
21259;DHT22;10787;53.364;-1.480;2022-08-19T09:12:04;18.30;99.90
21259;DHT22;10787;53.364;-1.480;2022-08-19T09:17:02;18.50;99.90
21259;DHT22;10787;53.364;-1.480;2022-08-19T09:19:30;18.50;99.90
21259;DHT22;10787;53.364;-1.480;2022-08-19T09:21:56;18.70;99.90
21259;DHT22;10787;53.364;-1.480;2022-08-19T09:24:22;18.70;99.90
21259;DHT22;10787;53.364;-1.480;2022-08-19T09:26:48;18.70;99.90
21259;DHT22;10787;53.364;-1.480;2022-08-19T09:29:15;18.70;99.90
21259;DHT22;10787;53.364;-1.480;2022-08-19T09:31:40;18.80;99.90
21259;DHT22;10787;53.364;-1.480;2022-08-19T09:34:07;19.10;99.90
21259;DHT22;10787;53.364;-1.480;2022-08-19T09:36:34;19.40;99.90
21259;DHT22;10787;53.364;-1.480;2022-08-19T09:39:05;19.40;99.90
21259;DHT22;10787;53.364;-1.480;2022-08-19T09:41:32;19.60;99.90
21259;DHT22;10787;53.364;-1.480;2022-08-19T09:43:58;19.60;99.90
21259;DHT22;10787;53.364;-1.480;2022-08-19T09:46:27;19.50;99.90
21259;DHT22;10787;53.364;-1.480;2022-08-19T09:48:54;19.50;99.90
21259;DHT22;10787;53.364;-1.480;2022-08-19T09:51:24;19.60;99.90
21259;DHT22;10787;53.364;-1.480;2022-08-19T09:53:51;19.70;99.90
21259;DHT22;10787;53.364;-1.480;2022-08-19T09:56:24;19.80;99.90
21259;DHT22;10787;53.364;-1.480;2022-08-19T09:58:50;20.00;99.90
21259;DHT22;10787;53.364;-1.480;2022-08-19T10:01:24;20.00;99.90
21259;DHT22;10787;53.364;-1.480;2022-08-19T10:03:52;20.00;99.90
21259;DHT22;10787;53.364;-1.480;2022-08-19T10:06:19;19.90;99.90
21259;DHT22;10787;53.364;-1.480;2022-08-19T10:08:46;19.70;99.90
21259;DHT22;10787;53.364;-1.480;2022-08-19T10:11:13;19.60;99.90
21259;DHT22;10787;53.364;-1.480;2022-08-19T10:13:42;19.50;99.90
21259;DHT22;10787;53.364;-1.480;2022-08-19T10:16:13;19.40;99.90
21259;DHT22;10787;53.364;-1.480;2022-08-19T10:18:40;19.60;99.90
21259;DHT22;10787;53.364;-1.480;2022-08-19T10:21:15;19.80;99.90
21259;DHT22;10787;53.364;-1.480;2022-08-19T10:23:43;19.70;99.90
21259;DHT22;10787;53.364;-1.480;2022-08-19T10:26:12;20.00;99.90
21259;DHT22;10787;53.364;-1.480;2022-08-19T10:28:38;20.20;99.90
21259;DHT22;10787;53.364;-1.480;2022-08-19T10:31:12;20.30;99.90
21259;DHT22;10787;53.364;-1.480;2022-08-19T10:33:39;20.10;99.90
21259;DHT22;10787;53.364;-1.480;2022-08-19T10:36:12;20.30;99.90
21259;DHT22;10787;53.364;-1.480;2022-08-19T10:38:41;20.60;99.90
21259;DHT22;10787;53.364;-1.480;2022-08-19T10:41:11;20.60;99.90
21259;DHT22;10787;53.364;-1.480;2022-08-19T10:43:39;20.60;99.90
21259;DHT22;10787;53.364;-1.480;2022-08-19T10:46:07;20.50;99.90
21259;DHT22;10787;53.364;-1.480;2022-08-19T10:48:33;21.00;99.90
21259;DHT22;10787;53.364;-1.480;2022-08-19T10:51:00;21.40;99.90
21259;DHT22;10787;53.364;-1.480;2022-08-19T10:53:45;21.40;99.90
21259;DHT22;10787;53.364;-1.480;2022-08-19T10:56:11;21.40;99.90
21259;DHT22;10787;53.364;-1.480;2022-08-19T10:58:55;21.60;99.90
21259;DHT22;10787;53.364;-1.480;2022-08-19T11:01:25;21.60;99.90
21259;DHT22;10787;53.364;-1.480;2022-08-19T11:03:51;21.60;99.90
21259;DHT22;10787;53.364;-1.480;2022-08-19T11:06:19;21.60;99.90
21259;DHT22;10787;53.364;-1.480;2022-08-19T11:08:46;21.30;99.90
21259;DHT22;10787;53.364;-1.480;2022-08-19T11:11:12;21.00;99.90
21259;DHT22;10787;53.364;-1.480;2022-08-19T11:13:40;20.60;99.90
21259;DHT22;10787;53.364;-1.480;2022-08-19T11:16:16;20.50;99.90
21259;DHT22;10787;53.364;-1.480;2022-08-19T11:18:45;20.40;99.90
21259;DHT22;10787;53.364;-1.480;2022-08-19T11:23:50;20.20;99.90
21259;DHT22;10787;53.364;-1.480;2022-08-19T11:26:17;20.50;99.90
21259;DHT22;10787;53.364;-1.480;2022-08-19T11:28:43;20.90;99.90
21259;DHT22;10787;53.364;-1.480;2022-08-19T11:31:15;20.80;99.90
21259;DHT22;10787;53.364;-1.480;2022-08-19T11:33:41;20.80;99.90
21259;DHT22;10787;53.364;-1.480;2022-08-19T11:36:08;20.70;99.90
21259;DHT22;10787;53.364;-1.480;2022-08-19T11:38:35;20.80;99.90
21259;DHT22;10787;53.364;-1.480;2022-08-19T11:41:04;21.00;99.90
21259;DHT22;10787;53.364;-1.480;2022-08-19T11:43:30;21.20;99.90
21259;DHT22;10787;53.364;-1.480;2022-08-19T11:45:57;21.40;99.90
21259;DHT22;10787;53.364;-1.480;2022-08-19T11:48:24;21.60;99.90
21259;DHT22;10787;53.364;-1.480;2022-08-19T11:50:52;21.60;99.90
21259;DHT22;10787;53.364;-1.480;2022-08-19T11:53:21;21.90;99.90
21259;DHT22;10787;53.364;-1.480;2022-08-19T11:55:48;22.10;99.90
21259;DHT22;10787;53.364;-1.480;2022-08-19T11:58:15;22.50;99.90
21259;DHT22;10787;53.364;-1.480;2022-08-19T12:00:43;22.70;99.90
21259;DHT22;10787;53.364;-1.480;2022-08-19T12:03:12;22.60;99.90
21259;DHT22;10787;53.364;-1.480;2022-08-19T12:05:40;22.60;99.90
21259;DHT22;10787;53.364;-1.480;2022-08-19T12:08:07;22.80;99.90
21259;DHT22;10787;53.364;-1.480;2022-08-19T12:10:33;22.80;99.90
21259;DHT22;10787;53.364;-1.480;2022-08-19T12:13:00;22.70;99.90
21259;DHT22;10787;53.364;-1.480;2022-08-19T12:15:27;22.30;99.90
21259;DHT22;10787;53.364;-1.480;2022-08-19T12:17:55;22.30;99.90
21259;DHT22;10787;53.364;-1.480;2022-08-19T12:20:23;22.20;99.90
21259;DHT22;10787;53.364;-1.480;2022-08-19T12:22:50;22.40;99.90
21259;DHT22;10787;53.364;-1.480;2022-08-19T12:25:16;22.20;99.90
21259;DHT22;10787;53.364;-1.480;2022-08-19T12:27:42;22.10;99.90
21259;DHT22;10787;53.364;-1.480;2022-08-19T12:30:10;22.00;99.90
21259;DHT22;10787;53.364;-1.480;2022-08-19T12:32:37;22.00;99.90
21259;DHT22;10787;53.364;-1.480;2022-08-19T12:35:04;22.00;99.90
21259;DHT22;10787;53.364;-1.480;2022-08-19T12:37:30;21.90;99.90
21259;DHT22;10787;53.364;-1.480;2022-08-19T12:39:57;21.60;99.90
21259;DHT22;10787;53.364;-1.480;2022-08-19T12:42:24;21.40;99.90
21259;DHT22;10787;53.364;-1.480;2022-08-19T12:44:50;21.20;99.90
21259;DHT22;10787;53.364;-1.480;2022-08-19T12:47:18;21.50;99.90
21259;DHT22;10787;53.364;-1.480;2022-08-19T12:49:45;21.60;99.90
21259;DHT22;10787;53.364;-1.480;2022-08-19T12:52:12;21.80;99.90
21259;DHT22;10787;53.364;-1.480;2022-08-19T12:54:41;21.90;99.90
21259;DHT22;10787;53.364;-1.480;2022-08-19T12:57:09;22.30;99.90
21259;DHT22;10787;53.364;-1.480;2022-08-19T12:59:37;22.70;99.90
21259;DHT22;10787;53.364;-1.480;2022-08-19T13:02:04;23.10;99.90
21259;DHT22;10787;53.364;-1.480;2022-08-19T13:04:34;22.80;99.90
21259;DHT22;10787;53.364;-1.480;2022-08-19T13:07:03;22.60;99.90
21259;DHT22;10787;53.364;-1.480;2022-08-19T13:09:29;22.90;99.90
21259;DHT22;10787;53.364;-1.480;2022-08-19T13:11:55;23.30;99.90
21259;DHT22;10787;53.364;-1.480;2022-08-19T13:14:22;24.00;99.90
21259;DHT22;10787;53.364;-1.480;2022-08-19T13:16:47;24.50;99.90
21259;DHT22;10787;53.364;-1.480;2022-08-19T13:19:13;24.90;99.90
21259;DHT22;10787;53.364;-1.480;2022-08-19T13:21:39;25.00;99.90
21259;DHT22;10787;53.364;-1.480;2022-08-19T13:24:05;24.50;99.90
21259;DHT22;10787;53.364;-1.480;2022-08-19T13:26:31;24.30;99.90
21259;DHT22;10787;53.364;-1.480;2022-08-19T13:28:57;24.10;99.90
21259;DHT22;10787;53.364;-1.480;2022-08-19T13:31:41;24.10;99.90
21259;DHT22;10787;53.364;-1.480;2022-08-19T13:34:34;24.30;99.90
21259;DHT22;10787;53.364;-1.480;2022-08-19T13:37:02;24.30;99.90
21259;DHT22;10787;53.364;-1.480;2022-08-19T13:39:32;25.00;99.90
21259;DHT22;10787;53.364;-1.480;2022-08-19T13:41:59;26.50;99.90
21259;DHT22;10787;53.364;-1.480;2022-08-19T13:44:27;28.30;99.90
21259;DHT22;10787;53.364;-1.480;2022-08-19T13:47:02;29.10;99.90
21259;DHT22;10787;53.364;-1.480;2022-08-19T13:49:33;28.70;99.90
21259;DHT22;10787;53.364;-1.480;2022-08-19T13:52:00;28.50;99.90
21259;DHT22;10787;53.364;-1.480;2022-08-19T13:54:26;27.50;99.90
21259;DHT22;10787;53.364;-1.480;2022-08-19T13:56:52;26.80;99.90
21259;DHT22;10787;53.364;-1.480;2022-08-19T13:59:18;25.30;99.90
21259;DHT22;10787;53.364;-1.480;2022-08-19T14:01:44;25.00;99.90
21259;DHT22;10787;53.364;-1.480;2022-08-19T14:04:11;24.20;99.90
21259;DHT22;10787;53.364;-1.480;2022-08-19T14:06:37;23.90;99.90
21259;DHT22;10787;53.364;-1.480;2022-08-19T14:09:04;23.60;99.90
21259;DHT22;10787;53.364;-1.480;2022-08-19T14:11:30;23.30;99.90
21259;DHT22;10787;53.364;-1.480;2022-08-19T14:13:55;22.80;99.90
21259;DHT22;10787;53.364;-1.480;2022-08-19T14:16:21;22.50;99.90
21259;DHT22;10787;53.364;-1.480;2022-08-19T14:18:47;22.30;99.90
21259;DHT22;10787;53.364;-1.480;2022-08-19T14:21:19;22.20;99.90
21259;DHT22;10787;53.364;-1.480;2022-08-19T14:23:45;21.90;99.90
21259;DHT22;10787;53.364;-1.480;2022-08-19T14:26:17;21.60;99.90
21259;DHT22;10787;53.364;-1.480;2022-08-19T14:28:44;21.60;99.90
21259;DHT22;10787;53.364;-1.480;2022-08-19T14:31:12;21.50;99.90
21259;DHT22;10787;53.364;-1.480;2022-08-19T14:33:38;21.50;99.90
21259;DHT22;10787;53.364;-1.480;2022-08-19T14:36:06;21.60;99.90
21259;DHT22;10787;53.364;-1.480;2022-08-19T14:38:32;21.70;99.90
21259;DHT22;10787;53.364;-1.480;2022-08-19T14:41:12;21.70;99.90
21259;DHT22;10787;53.364;-1.480;2022-08-19T14:43:38;21.80;99.90
21259;DHT22;10787;53.364;-1.480;2022-08-19T14:46:04;22.00;99.90
21259;DHT22;10787;53.364;-1.480;2022-08-19T14:48:30;22.10;99.90
21259;DHT22;10787;53.364;-1.480;2022-08-19T14:50:56;22.40;99.90
21259;DHT22;10787;53.364;-1.480;2022-08-19T14:53:22;22.60;99.90
21259;DHT22;10787;53.364;-1.480;2022-08-19T14:55:48;23.10;99.90
21259;DHT22;10787;53.364;-1.480;2022-08-19T14:58:14;23.10;99.90
21259;DHT22;10787;53.364;-1.480;2022-08-19T15:00:40;24.30;99.90
21259;DHT22;10787;53.364;-1.480;2022-08-19T15:03:07;24.60;99.90
21259;DHT22;10787;53.364;-1.480;2022-08-19T15:05:32;24.60;99.90
21259;DHT22;10787;53.364;-1.480;2022-08-19T15:08:03;24.60;99.90
21259;DHT22;10787;53.364;-1.480;2022-08-19T15:10:29;24.60;99.90
21259;DHT22;10787;53.364;-1.480;2022-08-19T15:12:54;24.40;99.90
21259;DHT22;10787;53.364;-1.480;2022-08-19T15:15:21;24.20;99.90
21259;DHT22;10787;53.364;-1.480;2022-08-19T15:17:48;24.20;99.90
21259;DHT22;10787;53.364;-1.480;2022-08-19T15:20:18;23.90;99.90
21259;DHT22;10787;53.364;-1.480;2022-08-19T15:22:45;25.10;99.90
21259;DHT22;10787;53.364;-1.480;2022-08-19T15:25:14;26.00;99.90
21259;DHT22;10787;53.364;-1.480;2022-08-19T15:27:40;25.50;99.90
21259;DHT22;10787;53.364;-1.480;2022-08-19T15:30:08;25.10;99.90
21259;DHT22;10787;53.364;-1.480;2022-08-19T15:32:34;24.80;99.90
21259;DHT22;10787;53.364;-1.480;2022-08-19T15:35:01;24.50;99.90